createdAt,value
2023-01-19T00:05:47.388Z,0.4
2023-01-19T00:08:47.322Z,0.4
2023-01-19T00:11:47.326Z,0.4
2023-01-19T00:14:47.318Z,0.4
2023-01-19T00:17:47.333Z,0.4
2023-01-19T00:23:47.403Z,0.4
2023-01-19T00:26:47.337Z,0.4
2023-01-19T00:29:47.336Z,0.4
2023-01-19T00:32:47.341Z,0.4
2023-01-19T00:35:47.332Z,0.4
2023-01-19T00:38:47.344Z,0.4
2023-01-19T00:41:47.331Z,0.4
2023-01-19T00:44:47.349Z,0.4
2023-01-19T00:47:47.342Z,0.4
2023-01-19T00:50:47.351Z,0.3
2023-01-19T00:56:47.345Z,0.3
2023-01-19T00:59:47.336Z,0.3
2023-01-19T01:02:47.396Z,0.3
2023-01-19T01:05:47.342Z,0.3
2023-01-19T01:08:47.344Z,0.3
2023-01-19T01:11:47.341Z,0.3
2023-01-19T01:14:47.341Z,0.2
2023-01-19T01:17:47.354Z,0.3
2023-01-19T01:20:47.347Z,0.2
2023-01-19T01:23:47.342Z,0.2
2023-01-19T01:26:47.339Z,0.2
2023-01-19T01:29:47.342Z,0.2
2023-01-19T01:32:47.354Z,0.2
2023-01-19T01:35:47.350Z,0.2
2023-01-19T01:38:47.343Z,0.2
2023-01-19T01:41:47.346Z,0.2
2023-01-19T01:44:47.350Z,0.2
2023-01-19T01:47:47.346Z,0.2
2023-01-19T01:50:47.346Z,0.2
2023-01-19T01:53:47.348Z,0.2
2023-01-19T01:56:47.351Z,0.2
2023-01-19T01:59:47.344Z,0.2
2023-01-19T02:02:47.350Z,0.2
2023-01-19T02:05:47.346Z,0.2
2023-01-19T02:08:47.355Z,0.2
2023-01-19T02:11:47.348Z,0.2
2023-01-19T02:14:47.354Z,0.2
2023-01-19T02:17:47.363Z,0.2
2023-01-19T02:20:47.345Z,0.2
2023-01-19T02:23:47.357Z,0.2
2023-01-19T02:26:47.348Z,0.2
2023-01-19T02:29:47.359Z,0.2
2023-01-19T02:32:47.366Z,0.2
2023-01-19T02:35:47.355Z,0.3
2023-01-19T02:38:47.354Z,0.3
2023-01-19T02:41:47.352Z,0.3
2023-01-19T02:44:47.351Z,0.3
2023-01-19T02:47:47.357Z,0.4
2023-01-19T02:50:47.361Z,0.4
2023-01-19T02:53:47.367Z,0.4
2023-01-19T02:56:47.353Z,0.4
2023-01-19T02:59:47.357Z,0.4
2023-01-19T03:02:47.359Z,0.5
2023-01-19T03:05:47.356Z,0.5
2023-01-19T03:08:47.357Z,0.5
2023-01-19T03:11:47.357Z,0.4
2023-01-19T03:14:47.362Z,0.4
2023-01-19T03:17:47.357Z,0.4
2023-01-19T03:20:47.366Z,0.4
2023-01-19T03:26:47.362Z,0.4
2023-01-19T03:29:47.362Z,0.4
2023-01-19T03:32:47.366Z,0.4
2023-01-19T03:35:47.361Z,0.4
2023-01-19T03:38:47.360Z,0.3
2023-01-19T03:41:47.360Z,0.3
2023-01-19T03:44:47.362Z,0.3
2023-01-19T03:47:47.355Z,0.3
2023-01-19T03:50:47.357Z,0.2
2023-01-19T03:53:47.376Z,0.2
2023-01-19T03:56:47.373Z,0.2
2023-01-19T03:59:47.380Z,0.2
2023-01-19T04:02:47.407Z,0.2
2023-01-19T04:05:47.371Z,0.2
2023-01-19T04:08:47.372Z,0.2
2023-01-19T04:11:47.377Z,0.2
2023-01-19T04:14:47.373Z,0.3
2023-01-19T04:17:47.373Z,0.3
2023-01-19T04:20:47.384Z,0.3
2023-01-19T04:23:47.388Z,0.3
2023-01-19T04:26:47.386Z,0.3
2023-01-19T04:29:47.378Z,0.3
2023-01-19T04:32:47.376Z,0.3
2023-01-19T04:35:47.392Z,0.3
2023-01-19T04:38:47.386Z,0.4
2023-01-19T04:41:47.387Z,0.4
2023-01-19T04:44:47.378Z,0.4
2023-01-19T04:47:47.379Z,0.5
2023-01-19T04:50:47.377Z,0.5
2023-01-19T04:53:47.380Z,0.5
2023-01-19T04:56:47.387Z,0.5
2023-01-19T04:59:47.376Z,0.5
2023-01-19T05:02:47.475Z,0.6
2023-01-19T05:05:47.387Z,0.6
2023-01-19T05:08:47.386Z,0.6
2023-01-19T05:11:47.385Z,0.6
2023-01-19T05:14:47.385Z,0.7
2023-01-19T05:17:47.372Z,0.7
2023-01-19T05:20:47.387Z,0.7
2023-01-19T05:23:47.380Z,0.7
2023-01-19T05:26:47.385Z,0.7
2023-01-19T05:29:47.399Z,0.8
2023-01-19T05:32:47.411Z,0.8
2023-01-19T05:35:47.383Z,0.8
2023-01-19T05:38:47.380Z,0.8
2023-01-19T05:41:47.390Z,0.8
2023-01-19T05:44:47.400Z,0.8
2023-01-19T05:47:47.395Z,0.8
2023-01-19T05:50:47.397Z,0.8
2023-01-19T05:53:47.400Z,0.8
2023-01-19T05:56:47.401Z,0.9
2023-01-19T05:59:47.393Z,0.9
2023-01-19T06:05:47.424Z,0.9
2023-01-19T06:08:47.436Z,0.9
2023-01-19T06:11:47.470Z,0.9
2023-01-19T06:14:47.428Z,0.9
2023-01-19T06:17:47.432Z,0.9
2023-01-19T06:20:47.432Z,1
2023-01-19T06:23:47.434Z,0.9
2023-01-19T06:26:47.430Z,0.9
2023-01-19T06:29:47.433Z,0.9
2023-01-19T06:32:47.448Z,0.9
2023-01-19T06:35:47.438Z,0.9
2023-01-19T06:38:47.436Z,1
2023-01-19T06:41:47.434Z,1
2023-01-19T06:44:47.614Z,1
2023-01-19T06:47:47.433Z,1
2023-01-19T06:50:47.441Z,0.9
2023-01-19T06:53:47.442Z,0.9
2023-01-19T06:56:47.450Z,0.9
2023-01-19T06:59:47.438Z,0.9
2023-01-19T07:02:47.455Z,0.9
2023-01-19T07:05:47.430Z,0.9
2023-01-19T07:08:47.439Z,0.9
2023-01-19T07:11:47.440Z,0.9
2023-01-19T07:14:47.452Z,0.9
2023-01-19T07:17:47.444Z,0.9
2023-01-19T07:20:47.440Z,0.9
2023-01-19T07:23:47.436Z,0.9
2023-01-19T07:26:47.437Z,0.9
2023-01-19T07:32:47.443Z,0.9
2023-01-19T07:35:47.444Z,0.9
2023-01-19T07:38:47.451Z,0.9
2023-01-19T07:41:47.441Z,1
2023-01-19T07:44:47.481Z,1
2023-01-19T07:47:47.443Z,1
2023-01-19T07:50:47.438Z,1
2023-01-19T07:53:47.448Z,1
2023-01-19T07:56:47.434Z,1
2023-01-19T07:59:47.439Z,1.1
2023-01-19T08:02:47.442Z,1.1
2023-01-19T08:05:47.447Z,1.1
2023-01-19T08:08:47.447Z,1.1
2023-01-19T08:11:47.452Z,1.1
2023-01-19T08:14:47.447Z,1.1
2023-01-19T08:17:47.444Z,1.1
2023-01-19T08:20:47.457Z,1.1
2023-01-19T08:23:47.467Z,1.1
2023-01-19T08:26:47.448Z,1.1
2023-01-19T08:29:47.452Z,1.1
2023-01-19T08:32:47.447Z,1.1
2023-01-19T08:35:47.460Z,1.2
2023-01-19T08:38:47.453Z,1.2
2023-01-19T08:41:47.449Z,1.2
2023-01-19T08:44:57.430Z,1.2
2023-01-19T08:47:47.451Z,1.2
2023-01-19T08:50:47.492Z,1.3
2023-01-19T08:53:47.444Z,1.3
2023-01-19T08:56:47.446Z,1.3
2023-01-19T08:59:47.477Z,1.4
2023-01-19T09:02:47.488Z,1.4
2023-01-19T09:05:47.450Z,1.4
2023-01-19T09:08:47.453Z,1.5
2023-01-19T09:11:47.447Z,1.5
2023-01-19T09:14:47.443Z,1.5
2023-01-19T09:17:47.449Z,1.5
2023-01-19T09:20:47.465Z,1.6
2023-01-19T09:23:47.449Z,1.6
2023-01-19T09:26:47.466Z,1.6
2023-01-19T09:29:47.512Z,1.7
2023-01-19T09:32:47.453Z,1.7
2023-01-19T09:35:47.520Z,1.8
2023-01-19T09:38:47.472Z,1.8
2023-01-19T09:41:47.499Z,1.9
2023-01-19T09:44:47.537Z,1.9
2023-01-19T09:47:47.500Z,2
2023-01-19T09:50:47.512Z,2.1
2023-01-19T09:53:47.542Z,2.1
2023-01-19T09:56:47.452Z,2.2
2023-01-19T09:59:47.455Z,2.2
2023-01-19T10:02:47.474Z,2.2
2023-01-19T10:05:47.456Z,2.3
2023-01-19T10:08:47.452Z,2.4
2023-01-19T10:11:52.833Z,2.5
2023-01-19T10:14:47.454Z,2.5
2023-01-19T10:17:47.473Z,2.5
2023-01-19T10:20:47.454Z,2.6
2023-01-19T10:23:47.443Z,2.7
2023-01-19T10:26:47.454Z,2.7
2023-01-19T10:29:47.451Z,2.7
2023-01-19T10:32:47.447Z,2.7
2023-01-19T10:35:47.482Z,2.7
2023-01-19T10:38:47.455Z,2.7
2023-01-19T10:41:47.479Z,2.7
2023-01-19T10:44:47.521Z,2.7
2023-01-19T10:47:47.455Z,2.7
2023-01-19T10:50:47.455Z,2.7
2023-01-19T10:53:47.457Z,2.7
2023-01-19T10:56:47.446Z,2.7
2023-01-19T10:59:47.526Z,2.7
2023-01-19T11:02:47.501Z,2.6
2023-01-19T11:05:47.456Z,2.6
2023-01-19T11:08:47.458Z,2.6
2023-01-19T11:11:47.454Z,2.6
2023-01-19T11:14:47.465Z,2.6
2023-01-19T11:17:47.459Z,2.6
2023-01-19T11:20:47.460Z,2.6
2023-01-19T11:23:47.451Z,2.6
2023-01-19T11:26:47.462Z,2.6
2023-01-19T11:29:47.461Z,2.6
2023-01-19T11:32:47.462Z,2.6
2023-01-19T11:35:47.468Z,2.7
2023-01-19T11:38:47.465Z,2.7
2023-01-19T11:41:47.462Z,2.7
2023-01-19T11:44:47.454Z,2.7
2023-01-19T11:47:47.468Z,2.7
2023-01-19T11:50:47.462Z,2.7
2023-01-19T11:53:47.477Z,2.7
2023-01-19T11:56:47.456Z,2.7
2023-01-19T11:59:47.461Z,2.7
2023-01-19T12:02:47.463Z,2.7
2023-01-19T12:05:48.323Z,2.7
2023-01-19T12:08:47.455Z,2.7
2023-01-19T12:11:47.457Z,2.7
2023-01-19T12:17:47.460Z,2.7
2023-01-19T12:20:47.461Z,2.7
2023-01-19T12:23:47.490Z,2.7
2023-01-19T12:26:47.463Z,2.7
2023-01-19T12:29:47.464Z,2.8
2023-01-19T12:32:47.466Z,2.7
2023-01-19T12:35:47.466Z,2.7
2023-01-19T12:38:47.462Z,2.7
2023-01-19T12:41:47.456Z,2.7
2023-01-19T12:44:47.467Z,2.7
2023-01-19T12:47:50.505Z,2.7
2023-01-19T12:53:47.458Z,2.8
2023-01-19T12:56:47.464Z,2.8
2023-01-19T12:59:47.466Z,2.8
2023-01-19T13:02:47.545Z,2.8
2023-01-19T13:05:47.550Z,2.8
2023-01-19T13:08:47.468Z,2.8
2023-01-19T13:11:53.683Z,2.7
2023-01-19T13:14:47.476Z,2.7
2023-01-19T13:17:49.752Z,2.7
2023-01-19T13:20:47.494Z,2.7
2023-01-19T13:23:47.494Z,2.7
2023-01-19T13:26:47.489Z,2.7
2023-01-19T13:29:47.492Z,2.7
2023-01-19T13:32:47.488Z,2.7
2023-01-19T13:35:47.494Z,2.6
2023-01-19T13:38:47.493Z,2.6
2023-01-19T13:41:47.501Z,2.6
2023-01-19T13:44:47.500Z,2.6
2023-01-19T13:47:47.492Z,2.6
2023-01-19T13:50:47.489Z,2.6
2023-01-19T13:53:47.500Z,2.6
2023-01-19T13:56:47.489Z,2.6
2023-01-19T13:59:47.495Z,2.6
2023-01-19T14:05:47.513Z,2.6
2023-01-19T14:08:47.518Z,2.6
2023-01-19T14:11:47.497Z,2.6
2023-01-19T14:14:47.502Z,2.6
2023-01-19T14:17:49.870Z,2.6
2023-01-19T14:20:47.500Z,2.6
2023-01-19T14:23:47.510Z,2.6
2023-01-19T14:26:47.488Z,2.5
2023-01-19T14:29:47.498Z,2.5
2023-01-19T14:32:47.538Z,2.5
2023-01-19T14:35:47.503Z,2.5
2023-01-19T14:38:47.503Z,2.5
2023-01-19T14:41:47.504Z,2.5
2023-01-19T14:44:47.497Z,2.5
2023-01-19T14:51:01.882Z,2.5
2023-01-19T14:53:47.493Z,2.5
2023-01-19T14:56:47.510Z,2.5
2023-01-19T14:59:47.502Z,2.5
2023-01-19T15:02:47.548Z,2.5
2023-01-19T15:05:47.545Z,2.5
2023-01-19T15:08:47.499Z,2.5
2023-01-19T15:11:47.502Z,2.4
2023-01-19T15:14:47.505Z,2.4
2023-01-19T15:17:47.516Z,2.4
2023-01-19T15:20:47.522Z,2.4
2023-01-19T15:23:47.542Z,2.4
2023-01-19T15:29:47.504Z,2.3
2023-01-19T15:32:47.522Z,2.3
2023-01-19T15:35:47.531Z,2.3
2023-01-19T15:38:47.530Z,2.3
2023-01-19T15:41:47.527Z,2.3
2023-01-19T15:44:47.517Z,2.3
2023-01-19T15:47:47.517Z,2.3
2023-01-19T15:50:47.517Z,2.3
2023-01-19T15:53:47.546Z,2.3
2023-01-19T15:56:47.538Z,2.3
2023-01-19T15:59:47.536Z,2.3
2023-01-19T16:02:47.552Z,2.3
2023-01-19T16:05:47.518Z,2.3
2023-01-19T16:08:47.543Z,2.2
2023-01-19T16:11:47.521Z,2.2
2023-01-19T16:14:47.520Z,2.2
2023-01-19T16:17:47.523Z,2.2
2023-01-19T16:20:47.532Z,2.2
2023-01-19T16:23:47.554Z,2.2
2023-01-19T16:26:47.532Z,2.2
2023-01-19T16:29:47.535Z,2.2
2023-01-19T16:32:47.572Z,2.2
2023-01-19T16:35:47.549Z,2.2
2023-01-19T16:38:47.610Z,2.2
2023-01-19T16:41:47.520Z,2.2
2023-01-19T16:44:47.541Z,2.2
2023-01-19T16:47:47.549Z,2.2
2023-01-19T16:50:47.524Z,2.2
2023-01-19T16:53:47.619Z,2.2
2023-01-19T16:56:47.522Z,2.2
2023-01-19T17:02:47.579Z,2.2
2023-01-19T17:05:47.524Z,2.2
2023-01-19T17:08:47.720Z,2.2
2023-01-19T17:11:47.534Z,2.2
2023-01-19T17:14:47.522Z,2.2
2023-01-19T17:17:47.524Z,2.2
2023-01-19T17:20:47.528Z,2.2
2023-01-19T17:23:47.717Z,2.2
2023-01-19T17:26:47.524Z,2.2
2023-01-19T17:29:49.777Z,2.2
2023-01-19T17:32:47.531Z,2.2
2023-01-19T17:35:47.515Z,2.2
2023-01-19T17:38:47.530Z,2.2
2023-01-19T17:41:50.123Z,2.2
2023-01-19T17:44:47.513Z,2.2
2023-01-19T17:47:47.530Z,2.2
2023-01-19T17:50:47.526Z,2.2
2023-01-19T17:53:47.529Z,2.2
2023-01-19T17:56:47.526Z,2.2
2023-01-19T17:59:47.528Z,2.2
2023-01-19T18:02:47.551Z,2.2
2023-01-19T18:05:47.527Z,2.2
2023-01-19T18:08:47.521Z,2.2
2023-01-19T18:11:47.527Z,2.1
2023-01-19T18:14:47.527Z,2.1
2023-01-19T18:17:47.512Z,2.1
2023-01-19T18:20:47.521Z,2.1
2023-01-19T18:23:47.534Z,2.1
2023-01-19T18:26:47.531Z,2.1
2023-01-19T18:29:47.536Z,2.1
2023-01-19T18:35:47.535Z,2.1
2023-01-19T18:38:47.540Z,2.1
2023-01-19T18:41:47.553Z,2.1
2023-01-19T18:44:47.536Z,2.1
2023-01-19T18:47:47.529Z,2.1
2023-01-19T18:50:47.539Z,2.1
2023-01-19T18:53:47.547Z,2.1
2023-01-19T18:56:47.534Z,2.1
2023-01-19T18:59:47.543Z,2.1
2023-01-19T19:02:47.553Z,2.1
2023-01-19T19:05:47.588Z,2.1
2023-01-19T19:08:47.536Z,2.1
2023-01-19T19:11:47.539Z,2.1
2023-01-19T19:14:47.539Z,2.1
2023-01-19T19:17:47.546Z,2.1
2023-01-19T19:20:47.543Z,2.1
2023-01-19T19:23:47.539Z,2.1
2023-01-19T19:26:47.547Z,2
2023-01-19T19:29:47.543Z,2
2023-01-19T19:32:47.536Z,2
2023-01-19T19:35:47.536Z,2
2023-01-19T19:38:47.578Z,1.9
2023-01-19T19:41:47.551Z,1.9
2023-01-19T19:44:47.545Z,1.9
2023-01-19T19:47:47.544Z,1.9
2023-01-19T19:50:47.540Z,1.9
2023-01-19T19:53:50.890Z,1.9
2023-01-19T19:56:47.539Z,1.8
2023-01-19T19:59:47.537Z,1.8
2023-01-19T20:02:47.562Z,1.8
2023-01-19T20:05:47.568Z,1.8
2023-01-19T20:08:47.575Z,1.8
2023-01-19T20:11:47.559Z,1.8
2023-01-19T20:14:47.564Z,1.7
2023-01-19T20:17:47.567Z,1.7
2023-01-19T20:20:47.567Z,1.7
2023-01-19T20:23:47.575Z,1.7
2023-01-19T20:26:47.571Z,1.7
2023-01-19T20:29:51.327Z,1.7
2023-01-19T20:32:47.573Z,1.6
2023-01-19T20:35:47.565Z,1.6
2023-01-19T20:38:47.570Z,1.6
2023-01-19T20:41:49.530Z,1.6
2023-01-19T20:44:47.578Z,1.6
2023-01-19T20:47:47.568Z,1.6
2023-01-19T20:50:47.568Z,1.5
2023-01-19T20:53:47.572Z,1.5
2023-01-19T20:56:47.563Z,1.5
2023-01-19T20:59:47.573Z,1.5
2023-01-19T21:02:47.572Z,1.5
2023-01-19T21:05:47.571Z,1.5
2023-01-19T21:08:47.571Z,1.4
2023-01-19T21:11:47.575Z,1.4
2023-01-19T21:14:47.572Z,1.4
2023-01-19T21:17:47.572Z,1.4
2023-01-19T21:20:47.570Z,1.4
2023-01-19T21:23:47.576Z,1.3
2023-01-19T21:26:47.584Z,1.3
2023-01-19T21:29:47.585Z,1.3
2023-01-19T21:32:47.594Z,1.3
2023-01-19T21:35:47.596Z,1.3
2023-01-19T21:38:47.597Z,1.3
2023-01-19T21:41:47.592Z,1.3
2023-01-19T21:44:47.593Z,1.3
2023-01-19T21:47:47.594Z,1.3
2023-01-19T21:50:47.595Z,1.2
2023-01-19T21:53:47.613Z,1.2
2023-01-19T21:56:47.607Z,1.2
2023-01-19T21:59:47.592Z,1.2
2023-01-19T22:03:02.456Z,1.2
2023-01-19T22:05:47.595Z,1.2
2023-01-19T22:08:47.594Z,1.2
2023-01-19T22:11:47.596Z,1.2
2023-01-19T22:14:47.596Z,1.1
2023-01-19T22:17:47.601Z,1.1
2023-01-19T22:20:47.594Z,1.1
2023-01-19T22:23:47.599Z,1.1
2023-01-19T22:26:47.603Z,1.1
2023-01-19T22:29:47.599Z,1.1
2023-01-19T22:32:47.597Z,1.1
2023-01-19T22:35:47.604Z,1.1
2023-01-19T22:38:47.613Z,1.1
2023-01-19T22:41:47.602Z,1.1
2023-01-19T22:44:47.605Z,1.2
2023-01-19T22:47:47.608Z,1.2
2023-01-19T22:50:47.602Z,1.2
2023-01-19T22:53:47.613Z,1.2
2023-01-19T22:56:47.624Z,1.2
2023-01-19T22:59:47.639Z,1.2
2023-01-19T23:02:47.635Z,1.2
2023-01-19T23:05:47.636Z,1.2
2023-01-19T23:08:47.642Z,1.2
2023-01-19T23:11:47.632Z,1.2
2023-01-19T23:14:47.631Z,1.2
2023-01-19T23:17:47.641Z,1.2
2023-01-19T23:20:47.625Z,1.1
2023-01-19T23:23:47.633Z,1.1
2023-01-19T23:26:47.647Z,1.1
2023-01-19T23:29:47.636Z,1.1
2023-01-19T23:32:47.637Z,1.1
2023-01-19T23:35:47.632Z,1.1
2023-01-19T23:38:47.643Z,1.1
2023-01-19T23:41:47.648Z,1
2023-01-19T23:44:47.673Z,1
2023-01-19T23:47:47.626Z,1
2023-01-19T23:50:47.648Z,1
2023-01-19T23:53:47.636Z,1
2023-01-19T23:56:47.626Z,1
2023-01-19T23:59:47.656Z,1
